sensor_id;sensor_type;location;lat;lon;timestamp;P1;durP1;ratioP1;P2;durP2;ratioP2
76204;SDS011;64986;55.672;37.628;2023-04-25T00:02:12;17.85;;;4.82;;
76204;SDS011;64986;55.672;37.628;2023-04-25T00:04:38;13.95;;;4.93;;
76204;SDS011;64986;55.672;37.628;2023-04-25T00:07:03;12.25;;;4.75;;
76204;SDS011;64986;55.672;37.628;2023-04-25T00:09:29;16.73;;;5.75;;
76204;SDS011;64986;55.672;37.628;2023-04-25T00:11:55;12.52;;;4.80;;
76204;SDS011;64986;55.672;37.628;2023-04-25T00:14:20;20.85;;;4.95;;
76204;SDS011;64986;55.672;37.628;2023-04-25T00:16:46;15.52;;;4.25;;
76204;SDS011;64986;55.672;37.628;2023-04-25T00:19:13;5.85;;;3.25;;
76204;SDS011;64986;55.672;37.628;2023-04-25T00:21:38;5.07;;;2.50;;
76204;SDS011;64986;55.672;37.628;2023-04-25T00:24:06;2.10;;;1.77;;
76204;SDS011;64986;55.672;37.628;2023-04-25T00:26:33;5.15;;;2.20;;
76204;SDS011;64986;55.672;37.628;2023-04-25T00:29:00;8.50;;;2.88;;
76204;SDS011;64986;55.672;37.628;2023-04-25T00:31:25;6.57;;;3.30;;
76204;SDS011;64986;55.672;37.628;2023-04-25T00:33:51;11.60;;;4.30;;
76204;SDS011;64986;55.672;37.628;2023-04-25T00:36:16;10.05;;;4.25;;
76204;SDS011;64986;55.672;37.628;2023-04-25T00:38:43;9.48;;;3.78;;
76204;SDS011;64986;55.672;37.628;2023-04-25T00:41:08;10.18;;;4.47;;
76204;SDS011;64986;55.672;37.628;2023-04-25T00:43:34;11.02;;;4.60;;
76204;SDS011;64986;55.672;37.628;2023-04-25T00:46:02;13.10;;;4.65;;
76204;SDS011;64986;55.672;37.628;2023-04-25T00:48:27;9.25;;;4.82;;
76204;SDS011;64986;55.672;37.628;2023-04-25T00:50:54;7.20;;;4.38;;
76204;SDS011;64986;55.672;37.628;2023-04-25T00:53:21;8.60;;;4.50;;
76204;SDS011;64986;55.672;37.628;2023-04-25T00:55:48;8.02;;;4.40;;
76204;SDS011;64986;55.672;37.628;2023-04-25T00:58:16;7.57;;;4.40;;
76204;SDS011;64986;55.672;37.628;2023-04-25T01:00:43;10.00;;;4.57;;
76204;SDS011;64986;55.672;37.628;2023-04-25T01:03:13;10.25;;;4.53;;
76204;SDS011;64986;55.672;37.628;2023-04-25T01:05:42;9.95;;;4.80;;
76204;SDS011;64986;55.672;37.628;2023-04-25T01:08:08;14.57;;;5.10;;
76204;SDS011;64986;55.672;37.628;2023-04-25T01:10:35;16.50;;;5.05;;
76204;SDS011;64986;55.672;37.628;2023-04-25T01:13:01;10.43;;;4.90;;
76204;SDS011;64986;55.672;37.628;2023-04-25T01:15:27;10.02;;;5.03;;
76204;SDS011;64986;55.672;37.628;2023-04-25T01:17:52;11.90;;;4.45;;
76204;SDS011;64986;55.672;37.628;2023-04-25T01:20:19;9.65;;;4.10;;
76204;SDS011;64986;55.672;37.628;2023-04-25T01:22:47;6.72;;;4.20;;
76204;SDS011;64986;55.672;37.628;2023-04-25T01:25:13;13.20;;;4.90;;
76204;SDS011;64986;55.672;37.628;2023-04-25T01:27:39;9.45;;;4.57;;
76204;SDS011;64986;55.672;37.628;2023-04-25T01:30:05;10.60;;;4.97;;
76204;SDS011;64986;55.672;37.628;2023-04-25T01:32:31;10.30;;;5.10;;
76204;SDS011;64986;55.672;37.628;2023-04-25T01:35:04;9.98;;;4.75;;
76204;SDS011;64986;55.672;37.628;2023-04-25T01:37:40;14.80;;;5.32;;
76204;SDS011;64986;55.672;37.628;2023-04-25T01:40:07;8.55;;;4.50;;
76204;SDS011;64986;55.672;37.628;2023-04-25T01:42:35;8.38;;;4.45;;
76204;SDS011;64986;55.672;37.628;2023-04-25T01:45:02;14.60;;;5.30;;
76204;SDS011;64986;55.672;37.628;2023-04-25T01:47:27;8.48;;;4.70;;
76204;SDS011;64986;55.672;37.628;2023-04-25T01:49:53;8.60;;;4.95;;
76204;SDS011;64986;55.672;37.628;2023-04-25T01:52:18;9.25;;;5.07;;
76204;SDS011;64986;55.672;37.628;2023-04-25T01:54:44;18.00;;;6.43;;
76204;SDS011;64986;55.672;37.628;2023-04-25T01:57:13;14.35;;;5.32;;
76204;SDS011;64986;55.672;37.628;2023-04-25T01:59:39;12.20;;;5.20;;
76204;SDS011;64986;55.672;37.628;2023-04-25T02:02:05;17.73;;;6.88;;
76204;SDS011;64986;55.672;37.628;2023-04-25T02:04:31;13.40;;;5.53;;
76204;SDS011;64986;55.672;37.628;2023-04-25T02:06:57;8.82;;;5.03;;
76204;SDS011;64986;55.672;37.628;2023-04-25T02:09:23;7.90;;;4.65;;
76204;SDS011;64986;55.672;37.628;2023-04-25T02:11:48;11.60;;;4.57;;
76204;SDS011;64986;55.672;37.628;2023-04-25T02:14:15;11.02;;;4.78;;
76204;SDS011;64986;55.672;37.628;2023-04-25T02:16:40;10.55;;;4.55;;
76204;SDS011;64986;55.672;37.628;2023-04-25T02:19:08;9.25;;;4.32;;
76204;SDS011;64986;55.672;37.628;2023-04-25T02:21:34;9.80;;;4.28;;
76204;SDS011;64986;55.672;37.628;2023-04-25T02:24:00;16.45;;;4.80;;
76204;SDS011;64986;55.672;37.628;2023-04-25T02:26:26;9.52;;;4.30;;
76204;SDS011;64986;55.672;37.628;2023-04-25T02:28:52;12.25;;;5.38;;
76204;SDS011;64986;55.672;37.628;2023-04-25T02:31:17;6.22;;;3.92;;
76204;SDS011;64986;55.672;37.628;2023-04-25T02:33:43;11.07;;;4.82;;
76204;SDS011;64986;55.672;37.628;2023-04-25T02:36:09;15.43;;;5.03;;
76204;SDS011;64986;55.672;37.628;2023-04-25T02:38:34;12.10;;;5.40;;
76204;SDS011;64986;55.672;37.628;2023-04-25T02:41:00;12.18;;;5.18;;
76204;SDS011;64986;55.672;37.628;2023-04-25T02:43:26;13.15;;;4.65;;
76204;SDS011;64986;55.672;37.628;2023-04-25T02:45:51;9.00;;;4.20;;
76204;SDS011;64986;55.672;37.628;2023-04-25T02:48:17;14.55;;;4.38;;
76204;SDS011;64986;55.672;37.628;2023-04-25T02:50:42;9.77;;;3.92;;
76204;SDS011;64986;55.672;37.628;2023-04-25T02:53:08;9.93;;;4.60;;
76204;SDS011;64986;55.672;37.628;2023-04-25T02:55:33;10.35;;;3.75;;
76204;SDS011;64986;55.672;37.628;2023-04-25T02:57:59;9.82;;;4.18;;
76204;SDS011;64986;55.672;37.628;2023-04-25T03:00:24;11.35;;;5.38;;
76204;SDS011;64986;55.672;37.628;2023-04-25T03:02:50;10.45;;;4.40;;
76204;SDS011;64986;55.672;37.628;2023-04-25T03:05:16;13.63;;;5.25;;
76204;SDS011;64986;55.672;37.628;2023-04-25T03:07:42;10.85;;;5.80;;
76204;SDS011;64986;55.672;37.628;2023-04-25T03:10:08;12.05;;;5.38;;
76204;SDS011;64986;55.672;37.628;2023-04-25T03:12:35;14.40;;;6.32;;
76204;SDS011;64986;55.672;37.628;2023-04-25T03:15:00;19.02;;;6.88;;
76204;SDS011;64986;55.672;37.628;2023-04-25T03:17:26;15.07;;;6.38;;
76204;SDS011;64986;55.672;37.628;2023-04-25T03:19:51;16.27;;;6.13;;
76204;SDS011;64986;55.672;37.628;2023-04-25T03:22:17;16.95;;;6.82;;
76204;SDS011;64986;55.672;37.628;2023-04-25T03:24:43;16.48;;;6.80;;
76204;SDS011;64986;55.672;37.628;2023-04-25T03:27:08;10.05;;;5.85;;
76204;SDS011;64986;55.672;37.628;2023-04-25T03:29:34;21.25;;;7.03;;
76204;SDS011;64986;55.672;37.628;2023-04-25T03:32:00;16.38;;;7.43;;
76204;SDS011;64986;55.672;37.628;2023-04-25T03:34:26;19.48;;;7.93;;
76204;SDS011;64986;55.672;37.628;2023-04-25T03:36:51;22.13;;;7.15;;
76204;SDS011;64986;55.672;37.628;2023-04-25T03:39:17;19.02;;;7.35;;
76204;SDS011;64986;55.672;37.628;2023-04-25T03:41:42;14.52;;;7.15;;
76204;SDS011;64986;55.672;37.628;2023-04-25T03:44:08;12.07;;;6.35;;
76204;SDS011;64986;55.672;37.628;2023-04-25T03:46:33;13.55;;;7.30;;
76204;SDS011;64986;55.672;37.628;2023-04-25T03:48:59;16.35;;;7.00;;
76204;SDS011;64986;55.672;37.628;2023-04-25T03:51:25;16.73;;;7.90;;
76204;SDS011;64986;55.672;37.628;2023-04-25T03:53:51;21.13;;;7.70;;
76204;SDS011;64986;55.672;37.628;2023-04-25T03:56:17;13.77;;;8.20;;
76204;SDS011;64986;55.672;37.628;2023-04-25T03:58:43;15.90;;;8.02;;
76204;SDS011;64986;55.672;37.628;2023-04-25T04:01:09;15.38;;;7.03;;
76204;SDS011;64986;55.672;37.628;2023-04-25T04:03:34;13.32;;;7.55;;
76204;SDS011;64986;55.672;37.628;2023-04-25T04:06:01;14.13;;;6.75;;
76204;SDS011;64986;55.672;37.628;2023-04-25T04:08:30;12.75;;;6.50;;
76204;SDS011;64986;55.672;37.628;2023-04-25T04:10:57;17.33;;;6.75;;
76204;SDS011;64986;55.672;37.628;2023-04-25T04:13:23;11.82;;;6.50;;
76204;SDS011;64986;55.672;37.628;2023-04-25T04:15:50;11.27;;;7.07;;
76204;SDS011;64986;55.672;37.628;2023-04-25T04:18:15;12.05;;;6.88;;
76204;SDS011;64986;55.672;37.628;2023-04-25T04:20:41;15.35;;;6.60;;
76204;SDS011;64986;55.672;37.628;2023-04-25T04:23:06;10.68;;;7.15;;
76204;SDS011;64986;55.672;37.628;2023-04-25T04:25:32;13.70;;;6.38;;
76204;SDS011;64986;55.672;37.628;2023-04-25T04:27:58;16.38;;;6.70;;
76204;SDS011;64986;55.672;37.628;2023-04-25T04:30:24;15.52;;;6.72;;
76204;SDS011;64986;55.672;37.628;2023-04-25T04:32:50;10.80;;;6.55;;
76204;SDS011;64986;55.672;37.628;2023-04-25T04:35:17;17.92;;;7.07;;
76204;SDS011;64986;55.672;37.628;2023-04-25T04:37:42;13.57;;;6.72;;
76204;SDS011;64986;55.672;37.628;2023-04-25T04:40:09;13.23;;;6.70;;
76204;SDS011;64986;55.672;37.628;2023-04-25T04:42:34;8.75;;;5.65;;
76204;SDS011;64986;55.672;37.628;2023-04-25T04:45:01;11.77;;;6.30;;
76204;SDS011;64986;55.672;37.628;2023-04-25T04:47:29;9.45;;;6.30;;
76204;SDS011;64986;55.672;37.628;2023-04-25T04:49:57;14.02;;;6.65;;
76204;SDS011;64986;55.672;37.628;2023-04-25T04:52:23;18.45;;;6.65;;
76204;SDS011;64986;55.672;37.628;2023-04-25T04:54:48;16.83;;;7.28;;
76204;SDS011;64986;55.672;37.628;2023-04-25T04:57:14;12.95;;;7.45;;
76204;SDS011;64986;55.672;37.628;2023-04-25T04:59:39;15.52;;;8.50;;
76204;SDS011;64986;55.672;37.628;2023-04-25T05:02:05;15.98;;;7.60;;
76204;SDS011;64986;55.672;37.628;2023-04-25T05:04:30;16.88;;;7.75;;
76204;SDS011;64986;55.672;37.628;2023-04-25T05:06:56;14.23;;;6.78;;
76204;SDS011;64986;55.672;37.628;2023-04-25T05:09:21;18.50;;;8.05;;
76204;SDS011;64986;55.672;37.628;2023-04-25T05:11:50;15.00;;;7.55;;
76204;SDS011;64986;55.672;37.628;2023-04-25T05:14:16;15.65;;;6.75;;
76204;SDS011;64986;55.672;37.628;2023-04-25T05:16:42;15.38;;;7.40;;
76204;SDS011;64986;55.672;37.628;2023-04-25T05:19:08;14.43;;;7.60;;
76204;SDS011;64986;55.672;37.628;2023-04-25T05:21:34;12.38;;;7.15;;
76204;SDS011;64986;55.672;37.628;2023-04-25T05:23:59;13.57;;;6.40;;
76204;SDS011;64986;55.672;37.628;2023-04-25T05:26:25;16.70;;;6.18;;
76204;SDS011;64986;55.672;37.628;2023-04-25T05:28:51;22.67;;;7.13;;
76204;SDS011;64986;55.672;37.628;2023-04-25T05:31:16;16.98;;;6.47;;
76204;SDS011;64986;55.672;37.628;2023-04-25T05:33:42;15.70;;;6.13;;
76204;SDS011;64986;55.672;37.628;2023-04-25T05:36:08;11.00;;;6.20;;
76204;SDS011;64986;55.672;37.628;2023-04-25T05:38:33;10.65;;;6.22;;
76204;SDS011;64986;55.672;37.628;2023-04-25T05:40:59;11.55;;;6.13;;
76204;SDS011;64986;55.672;37.628;2023-04-25T05:43:24;14.75;;;6.53;;
76204;SDS011;64986;55.672;37.628;2023-04-25T05:45:50;20.02;;;7.22;;
76204;SDS011;64986;55.672;37.628;2023-04-25T05:48:15;15.45;;;7.65;;
76204;SDS011;64986;55.672;37.628;2023-04-25T05:50:41;17.42;;;6.95;;
76204;SDS011;64986;55.672;37.628;2023-04-25T05:53:07;12.20;;;6.45;;
76204;SDS011;64986;55.672;37.628;2023-04-25T05:55:32;11.90;;;7.18;;
76204;SDS011;64986;55.672;37.628;2023-04-25T05:57:58;19.90;;;6.93;;
76204;SDS011;64986;55.672;37.628;2023-04-25T06:00:23;9.68;;;6.10;;
76204;SDS011;64986;55.672;37.628;2023-04-25T06:02:49;9.55;;;5.45;;
76204;SDS011;64986;55.672;37.628;2023-04-25T06:05:15;13.98;;;5.93;;
76204;SDS011;64986;55.672;37.628;2023-04-25T06:07:40;12.20;;;6.00;;
76204;SDS011;64986;55.672;37.628;2023-04-25T06:10:06;13.70;;;6.68;;
76204;SDS011;64986;55.672;37.628;2023-04-25T06:12:33;11.75;;;6.10;;
76204;SDS011;64986;55.672;37.628;2023-04-25T06:14:59;13.68;;;6.03;;
76204;SDS011;64986;55.672;37.628;2023-04-25T06:17:25;11.85;;;5.72;;
76204;SDS011;64986;55.672;37.628;2023-04-25T06:19:50;8.95;;;5.90;;
76204;SDS011;64986;55.672;37.628;2023-04-25T06:22:16;10.07;;;5.22;;
76204;SDS011;64986;55.672;37.628;2023-04-25T06:24:41;8.40;;;4.63;;
76204;SDS011;64986;55.672;37.628;2023-04-25T06:27:07;13.40;;;5.25;;
76204;SDS011;64986;55.672;37.628;2023-04-25T06:29:32;8.32;;;4.63;;
76204;SDS011;64986;55.672;37.628;2023-04-25T06:31:58;11.80;;;5.20;;
76204;SDS011;64986;55.672;37.628;2023-04-25T06:34:23;14.15;;;5.75;;
76204;SDS011;64986;55.672;37.628;2023-04-25T06:36:49;14.60;;;5.65;;
76204;SDS011;64986;55.672;37.628;2023-04-25T06:39:14;10.77;;;4.72;;
76204;SDS011;64986;55.672;37.628;2023-04-25T06:41:40;8.88;;;5.15;;
76204;SDS011;64986;55.672;37.628;2023-04-25T06:44:05;8.73;;;4.30;;
76204;SDS011;64986;55.672;37.628;2023-04-25T06:46:31;10.93;;;5.30;;
76204;SDS011;64986;55.672;37.628;2023-04-25T06:48:57;8.95;;;5.40;;
76204;SDS011;64986;55.672;37.628;2023-04-25T06:51:22;9.63;;;5.25;;
76204;SDS011;64986;55.672;37.628;2023-04-25T06:53:49;12.27;;;5.97;;
76204;SDS011;64986;55.672;37.628;2023-04-25T06:56:15;13.60;;;5.88;;
76204;SDS011;64986;55.672;37.628;2023-04-25T06:58:41;9.77;;;4.25;;
76204;SDS011;64986;55.672;37.628;2023-04-25T07:01:06;8.75;;;3.92;;
76204;SDS011;64986;55.672;37.628;2023-04-25T07:03:32;11.50;;;5.13;;
76204;SDS011;64986;55.672;37.628;2023-04-25T07:05:57;13.65;;;6.80;;
76204;SDS011;64986;55.672;37.628;2023-04-25T07:08:23;9.98;;;5.75;;
76204;SDS011;64986;55.672;37.628;2023-04-25T07:10:48;11.80;;;6.03;;
76204;SDS011;64986;55.672;37.628;2023-04-25T07:13:14;18.13;;;6.70;;
76204;SDS011;64986;55.672;37.628;2023-04-25T07:15:39;14.23;;;5.65;;
76204;SDS011;64986;55.672;37.628;2023-04-25T07:18:05;11.60;;;5.88;;
76204;SDS011;64986;55.672;37.628;2023-04-25T07:20:30;12.55;;;6.70;;
76204;SDS011;64986;55.672;37.628;2023-04-25T07:22:56;11.43;;;4.72;;
76204;SDS011;64986;55.672;37.628;2023-04-25T07:25:22;13.32;;;4.82;;
76204;SDS011;64986;55.672;37.628;2023-04-25T07:27:50;6.63;;;3.70;;
76204;SDS011;64986;55.672;37.628;2023-04-25T07:30:15;12.05;;;4.95;;
76204;SDS011;64986;55.672;37.628;2023-04-25T07:32:41;8.70;;;4.35;;
76204;SDS011;64986;55.672;37.628;2023-04-25T07:35:07;10.45;;;4.38;;
76204;SDS011;64986;55.672;37.628;2023-04-25T07:37:33;8.68;;;4.97;;
76204;SDS011;64986;55.672;37.628;2023-04-25T07:40:00;10.13;;;6.22;;
76204;SDS011;64986;55.672;37.628;2023-04-25T07:42:25;12.88;;;4.32;;
76204;SDS011;64986;55.672;37.628;2023-04-25T07:44:51;9.77;;;3.22;;
76204;SDS011;64986;55.672;37.628;2023-04-25T07:47:16;11.40;;;5.13;;
76204;SDS011;64986;55.672;37.628;2023-04-25T07:49:44;9.00;;;4.30;;
76204;SDS011;64986;55.672;37.628;2023-04-25T07:52:10;8.75;;;3.33;;
76204;SDS011;64986;55.672;37.628;2023-04-25T07:54:36;7.53;;;3.10;;
76204;SDS011;64986;55.672;37.628;2023-04-25T07:57:01;8.45;;;3.03;;
76204;SDS011;64986;55.672;37.628;2023-04-25T07:59:27;7.50;;;4.00;;
76204;SDS011;64986;55.672;37.628;2023-04-25T08:01:53;9.75;;;3.50;;
76204;SDS011;64986;55.672;37.628;2023-04-25T08:04:18;7.35;;;3.45;;
76204;SDS011;64986;55.672;37.628;2023-04-25T08:06:44;7.30;;;3.20;;
76204;SDS011;64986;55.672;37.628;2023-04-25T08:09:10;5.53;;;3.35;;
76204;SDS011;64986;55.672;37.628;2023-04-25T08:11:36;8.07;;;3.75;;
76204;SDS011;64986;55.672;37.628;2023-04-25T08:14:02;5.30;;;3.53;;
76204;SDS011;64986;55.672;37.628;2023-04-25T08:16:28;5.32;;;2.85;;
76204;SDS011;64986;55.672;37.628;2023-04-25T08:18:53;6.57;;;3.28;;
76204;SDS011;64986;55.672;37.628;2023-04-25T08:21:19;14.73;;;3.50;;
76204;SDS011;64986;55.672;37.628;2023-04-25T08:23:45;6.57;;;2.70;;
76204;SDS011;64986;55.672;37.628;2023-04-25T08:26:11;6.93;;;3.45;;
76204;SDS011;64986;55.672;37.628;2023-04-25T08:28:37;7.47;;;3.90;;
76204;SDS011;64986;55.672;37.628;2023-04-25T08:31:02;11.05;;;3.95;;
76204;SDS011;64986;55.672;37.628;2023-04-25T08:33:28;7.45;;;3.20;;
76204;SDS011;64986;55.672;37.628;2023-04-25T08:35:54;7.63;;;3.13;;
76204;SDS011;64986;55.672;37.628;2023-04-25T08:38:19;5.15;;;2.80;;
76204;SDS011;64986;55.672;37.628;2023-04-25T08:40:46;4.35;;;2.97;;
76204;SDS011;64986;55.672;37.628;2023-04-25T08:43:15;7.18;;;3.20;;
76204;SDS011;64986;55.672;37.628;2023-04-25T08:45:43;6.38;;;2.90;;
76204;SDS011;64986;55.672;37.628;2023-04-25T08:48:16;5.07;;;3.03;;
76204;SDS011;64986;55.672;37.628;2023-04-25T08:50:45;7.05;;;3.05;;
76204;SDS011;64986;55.672;37.628;2023-04-25T08:53:16;6.85;;;2.90;;
76204;SDS011;64986;55.672;37.628;2023-04-25T08:55:45;7.43;;;2.65;;
76204;SDS011;64986;55.672;37.628;2023-04-25T08:58:12;9.20;;;2.90;;
76204;SDS011;64986;55.672;37.628;2023-04-25T09:00:38;7.82;;;2.85;;
76204;SDS011;64986;55.672;37.628;2023-04-25T09:03:04;9.57;;;4.10;;
76204;SDS011;64986;55.672;37.628;2023-04-25T09:05:29;9.43;;;3.03;;
76204;SDS011;64986;55.672;37.628;2023-04-25T09:07:55;7.80;;;3.05;;
76204;SDS011;64986;55.672;37.628;2023-04-25T09:10:21;10.73;;;3.60;;
76204;SDS011;64986;55.672;37.628;2023-04-25T09:15:38;5.97;;;2.58;;
76204;SDS011;64986;55.672;37.628;2023-04-25T09:18:13;12.05;;;3.45;;
76204;SDS011;64986;55.672;37.628;2023-04-25T09:20:42;10.70;;;3.33;;
76204;SDS011;64986;55.672;37.628;2023-04-25T09:23:08;5.18;;;2.63;;
76204;SDS011;64986;55.672;37.628;2023-04-25T09:25:36;5.30;;;2.85;;
76204;SDS011;64986;55.672;37.628;2023-04-25T09:28:04;9.38;;;2.47;;
76204;SDS011;64986;55.672;37.628;2023-04-25T09:30:32;6.00;;;2.80;;
76204;SDS011;64986;55.672;37.628;2023-04-25T09:33:06;6.10;;;2.63;;
76204;SDS011;64986;55.672;37.628;2023-04-25T09:36:06;6.30;;;2.78;;
76204;SDS011;64986;55.672;37.628;2023-04-25T09:38:33;2.45;;;1.92;;
76204;SDS011;64986;55.672;37.628;2023-04-25T09:41:07;7.93;;;2.17;;
76204;SDS011;64986;55.672;37.628;2023-04-25T09:43:33;3.60;;;2.08;;
76204;SDS011;64986;55.672;37.628;2023-04-25T09:45:58;5.50;;;2.72;;
76204;SDS011;64986;55.672;37.628;2023-04-25T09:48:25;5.50;;;2.05;;
76204;SDS011;64986;55.672;37.628;2023-04-25T09:51:13;4.80;;;2.75;;
76204;SDS011;64986;55.672;37.628;2023-04-25T09:53:45;6.68;;;2.72;;
76204;SDS011;64986;55.672;37.628;2023-04-25T09:56:14;9.07;;;3.10;;
76204;SDS011;64986;55.672;37.628;2023-04-25T09:58:41;8.05;;;2.78;;
76204;SDS011;64986;55.672;37.628;2023-04-25T10:01:07;6.50;;;2.75;;
76204;SDS011;64986;55.672;37.628;2023-04-25T10:03:37;4.38;;;3.20;;
76204;SDS011;64986;55.672;37.628;2023-04-25T10:06:08;6.57;;;3.55;;
76204;SDS011;64986;55.672;37.628;2023-04-25T10:08:37;3.60;;;2.00;;
76204;SDS011;64986;55.672;37.628;2023-04-25T10:11:04;6.13;;;2.60;;
76204;SDS011;64986;55.672;37.628;2023-04-25T10:13:32;2.78;;;2.05;;
76204;SDS011;64986;55.672;37.628;2023-04-25T10:15:59;7.47;;;2.60;;
76204;SDS011;64986;55.672;37.628;2023-04-25T10:18:26;9.05;;;2.85;;
76204;SDS011;64986;55.672;37.628;2023-04-25T10:20:59;7.68;;;2.40;;
76204;SDS011;64986;55.672;37.628;2023-04-25T10:23:27;5.53;;;2.53;;
76204;SDS011;64986;55.672;37.628;2023-04-25T10:25:54;8.40;;;2.53;;
76204;SDS011;64986;55.672;37.628;2023-04-25T10:28:21;6.78;;;2.60;;
76204;SDS011;64986;55.672;37.628;2023-04-25T10:33:38;4.57;;;2.25;;
76204;SDS011;64986;55.672;37.628;2023-04-25T10:36:12;5.50;;;2.35;;
76204;SDS011;64986;55.672;37.628;2023-04-25T10:38:38;4.18;;;2.42;;
76204;SDS011;64986;55.672;37.628;2023-04-25T10:41:08;4.07;;;2.55;;
76204;SDS011;64986;55.672;37.628;2023-04-25T10:43:40;3.65;;;1.92;;
76204;SDS011;64986;55.672;37.628;2023-04-25T10:46:23;3.05;;;1.75;;
76204;SDS011;64986;55.672;37.628;2023-04-25T10:48:51;4.13;;;2.42;;
76204;SDS011;64986;55.672;37.628;2023-04-25T10:56:21;4.53;;;2.53;;
76204;SDS011;64986;55.672;37.628;2023-04-25T11:01:47;4.50;;;2.40;;
76204;SDS011;64986;55.672;37.628;2023-04-25T11:04:24;6.60;;;2.35;;
76204;SDS011;64986;55.672;37.628;2023-04-25T11:06:58;2.88;;;1.65;;
76204;SDS011;64986;55.672;37.628;2023-04-25T11:09:25;5.25;;;2.13;;
76204;SDS011;64986;55.672;37.628;2023-04-25T11:11:55;8.85;;;1.95;;
76204;SDS011;64986;55.672;37.628;2023-04-25T11:14:21;7.88;;;2.08;;
76204;SDS011;64986;55.672;37.628;2023-04-25T11:16:47;5.18;;;2.10;;
76204;SDS011;64986;55.672;37.628;2023-04-25T11:19:19;4.32;;;1.95;;
76204;SDS011;64986;55.672;37.628;2023-04-25T11:21:45;4.70;;;2.20;;
76204;SDS011;64986;55.672;37.628;2023-04-25T11:24:11;6.07;;;2.33;;
76204;SDS011;64986;55.672;37.628;2023-04-25T11:26:36;4.70;;;1.92;;
76204;SDS011;64986;55.672;37.628;2023-04-25T11:29:02;3.17;;;1.50;;
76204;SDS011;64986;55.672;37.628;2023-04-25T11:31:28;4.15;;;1.65;;
76204;SDS011;64986;55.672;37.628;2023-04-25T11:33:56;7.75;;;2.40;;
76204;SDS011;64986;55.672;37.628;2023-04-25T11:36:22;3.03;;;1.42;;
76204;SDS011;64986;55.672;37.628;2023-04-25T11:38:50;2.30;;;1.98;;
76204;SDS011;64986;55.672;37.628;2023-04-25T11:41:17;4.22;;;1.83;;
76204;SDS011;64986;55.672;37.628;2023-04-25T11:43:43;3.08;;;2.47;;
76204;SDS011;64986;55.672;37.628;2023-04-25T11:46:09;4.22;;;1.90;;
76204;SDS011;64986;55.672;37.628;2023-04-25T11:48:38;4.63;;;1.70;;
76204;SDS011;64986;55.672;37.628;2023-04-25T11:51:05;3.40;;;2.03;;
76204;SDS011;64986;55.672;37.628;2023-04-25T11:53:30;4.63;;;2.45;;
76204;SDS011;64986;55.672;37.628;2023-04-25T11:55:56;6.45;;;3.00;;
76204;SDS011;64986;55.672;37.628;2023-04-25T11:58:22;4.60;;;2.33;;
76204;SDS011;64986;55.672;37.628;2023-04-25T12:00:48;4.65;;;2.13;;
76204;SDS011;64986;55.672;37.628;2023-04-25T12:03:13;5.15;;;1.90;;
76204;SDS011;64986;55.672;37.628;2023-04-25T12:05:39;2.35;;;1.48;;
76204;SDS011;64986;55.672;37.628;2023-04-25T12:08:15;6.28;;;2.03;;
76204;SDS011;64986;55.672;37.628;2023-04-25T12:10:42;2.42;;;1.77;;
76204;SDS011;64986;55.672;37.628;2023-04-25T12:13:20;6.85;;;2.00;;
76204;SDS011;64986;55.672;37.628;2023-04-25T12:15:48;4.32;;;2.47;;
76204;SDS011;64986;55.672;37.628;2023-04-25T12:18:13;4.82;;;2.50;;
76204;SDS011;64986;55.672;37.628;2023-04-25T12:20:41;5.30;;;2.58;;
76204;SDS011;64986;55.672;37.628;2023-04-25T12:23:07;7.30;;;2.90;;
76204;SDS011;64986;55.672;37.628;2023-04-25T12:25:39;4.10;;;1.90;;
76204;SDS011;64986;55.672;37.628;2023-04-25T12:30:52;3.58;;;1.73;;
76204;SDS011;64986;55.672;37.628;2023-04-25T12:33:28;6.78;;;2.20;;
76204;SDS011;64986;55.672;37.628;2023-04-25T12:35:56;7.35;;;2.75;;
76204;SDS011;64986;55.672;37.628;2023-04-25T12:40:49;4.47;;;2.10;;
76204;SDS011;64986;55.672;37.628;2023-04-25T12:43:14;5.30;;;3.10;;
76204;SDS011;64986;55.672;37.628;2023-04-25T12:45:40;8.07;;;3.10;;
76204;SDS011;64986;55.672;37.628;2023-04-25T12:48:05;7.70;;;2.75;;
76204;SDS011;64986;55.672;37.628;2023-04-25T12:50:31;4.22;;;3.00;;
76204;SDS011;64986;55.672;37.628;2023-04-25T12:52:57;4.75;;;2.63;;
76204;SDS011;64986;55.672;37.628;2023-04-25T12:55:22;6.00;;;3.35;;
76204;SDS011;64986;55.672;37.628;2023-04-25T12:57:48;3.78;;;2.10;;
76204;SDS011;64986;55.672;37.628;2023-04-25T13:00:13;6.85;;;2.00;;
76204;SDS011;64986;55.672;37.628;2023-04-25T13:02:40;4.80;;;2.15;;
76204;SDS011;64986;55.672;37.628;2023-04-25T13:05:06;4.00;;;2.30;;
76204;SDS011;64986;55.672;37.628;2023-04-25T13:07:31;4.80;;;2.35;;
76204;SDS011;64986;55.672;37.628;2023-04-25T13:09:57;3.60;;;2.33;;
76204;SDS011;64986;55.672;37.628;2023-04-25T13:12:22;8.32;;;2.40;;
76204;SDS011;64986;55.672;37.628;2023-04-25T13:14:48;12.43;;;2.83;;
76204;SDS011;64986;55.672;37.628;2023-04-25T13:17:13;6.00;;;2.10;;
76204;SDS011;64986;55.672;37.628;2023-04-25T13:19:39;7.40;;;2.58;;
76204;SDS011;64986;55.672;37.628;2023-04-25T13:22:04;5.18;;;2.17;;
76204;SDS011;64986;55.672;37.628;2023-04-25T13:24:30;5.93;;;2.03;;
76204;SDS011;64986;55.672;37.628;2023-04-25T13:26:55;5.40;;;2.00;;
76204;SDS011;64986;55.672;37.628;2023-04-25T13:29:21;8.07;;;4.07;;
76204;SDS011;64986;55.672;37.628;2023-04-25T13:31:46;7.70;;;3.25;;
76204;SDS011;64986;55.672;37.628;2023-04-25T13:34:12;5.45;;;1.98;;
76204;SDS011;64986;55.672;37.628;2023-04-25T13:36:37;7.50;;;2.85;;
76204;SDS011;64986;55.672;37.628;2023-04-25T13:39:03;4.30;;;2.83;;
76204;SDS011;64986;55.672;37.628;2023-04-25T13:41:32;7.05;;;2.53;;
76204;SDS011;64986;55.672;37.628;2023-04-25T13:43:57;6.03;;;3.15;;
76204;SDS011;64986;55.672;37.628;2023-04-25T13:46:23;9.95;;;2.88;;
76204;SDS011;64986;55.672;37.628;2023-04-25T13:48:48;5.78;;;2.50;;
76204;SDS011;64986;55.672;37.628;2023-04-25T13:51:15;6.78;;;2.75;;
76204;SDS011;64986;55.672;37.628;2023-04-25T13:53:41;4.25;;;2.53;;
76204;SDS011;64986;55.672;37.628;2023-04-25T13:56:06;6.32;;;2.50;;
76204;SDS011;64986;55.672;37.628;2023-04-25T13:58:32;6.78;;;3.42;;
76204;SDS011;64986;55.672;37.628;2023-04-25T14:00:58;8.38;;;3.33;;
76204;SDS011;64986;55.672;37.628;2023-04-25T14:03:23;9.07;;;3.33;;
76204;SDS011;64986;55.672;37.628;2023-04-25T14:05:49;7.60;;;2.47;;
76204;SDS011;64986;55.672;37.628;2023-04-25T14:08:16;7.32;;;2.03;;
76204;SDS011;64986;55.672;37.628;2023-04-25T14:10:41;4.68;;;1.90;;
76204;SDS011;64986;55.672;37.628;2023-04-25T14:13:06;6.40;;;2.67;;
76204;SDS011;64986;55.672;37.628;2023-04-25T14:15:32;7.78;;;2.08;;
76204;SDS011;64986;55.672;37.628;2023-04-25T14:17:58;5.03;;;3.72;;
76204;SDS011;64986;55.672;37.628;2023-04-25T14:20:24;5.68;;;2.50;;
76204;SDS011;64986;55.672;37.628;2023-04-25T14:22:50;3.38;;;2.15;;
76204;SDS011;64986;55.672;37.628;2023-04-25T14:25:17;6.60;;;2.15;;
76204;SDS011;64986;55.672;37.628;2023-04-25T14:27:42;4.88;;;2.13;;
76204;SDS011;64986;55.672;37.628;2023-04-25T14:30:09;7.55;;;2.35;;
76204;SDS011;64986;55.672;37.628;2023-04-25T14:32:36;10.20;;;2.63;;
76204;SDS011;64986;55.672;37.628;2023-04-25T14:35:03;4.55;;;2.45;;
76204;SDS011;64986;55.672;37.628;2023-04-25T14:37:28;6.10;;;2.25;;
76204;SDS011;64986;55.672;37.628;2023-04-25T14:39:54;7.88;;;3.00;;
76204;SDS011;64986;55.672;37.628;2023-04-25T14:42:19;10.18;;;4.18;;
76204;SDS011;64986;55.672;37.628;2023-04-25T14:44:45;5.20;;;2.30;;